createdAt,value
2022-10-09T00:01:31.617Z,6.73
2022-10-09T00:04:00.014Z,6.69
2022-10-09T00:06:32.447Z,6.67
2022-10-09T00:09:02.226Z,6.63
2022-10-09T00:11:33.069Z,6.60
2022-10-09T00:14:01.693Z,6.58
2022-10-09T00:16:29.431Z,6.55
2022-10-09T00:18:57.212Z,6.55
2022-10-09T00:21:31.802Z,6.53
2022-10-09T00:24:02.536Z,6.49
2022-10-09T00:26:30.831Z,6.45
2022-10-09T00:28:58.397Z,6.42
2022-10-09T00:31:25.830Z,6.40
2022-10-09T00:33:53.304Z,6.37
2022-10-09T00:36:25.315Z,6.36
2022-10-09T00:38:54.603Z,6.35
2022-10-09T00:41:27.074Z,6.35
2022-10-09T00:44:02.114Z,6.33
2022-10-09T00:46:50.470Z,6.32
2022-10-09T00:49:29.933Z,6.30
2022-10-09T00:52:03.777Z,6.29
2022-10-09T00:54:35.681Z,6.26
2022-10-09T00:57:03.649Z,6.23
2022-10-09T00:59:31.834Z,6.23
2022-10-09T01:01:59.374Z,6.22
2022-10-09T01:04:26.984Z,6.20
2022-10-09T01:07:22.929Z,6.19
2022-10-09T01:10:03.125Z,6.15
2022-10-09T01:12:50.060Z,6.14
2022-10-09T01:15:33.884Z,6.10
2022-10-09T01:18:16.233Z,6.08
2022-10-09T01:20:58.664Z,6.07
2022-10-09T01:23:40.887Z,6.07
2022-10-09T01:26:28.531Z,6.03
2022-10-09T01:29:03.055Z,6.01
2022-10-09T01:31:37.097Z,5.98
2022-10-09T01:34:07.723Z,5.96
2022-10-09T01:36:37.210Z,5.95
2022-10-09T01:39:09.252Z,5.94
2022-10-09T01:41:37.561Z,5.92
2022-10-09T01:44:20.118Z,5.91
2022-10-09T01:46:47.915Z,5.86
2022-10-09T01:49:52.178Z,5.84
2022-10-09T01:52:50.097Z,5.80
2022-10-09T01:55:43.305Z,5.78
2022-10-09T01:58:30.471Z,5.76
2022-10-09T02:01:16.744Z,5.73
2022-10-09T02:03:50.849Z,5.70
2022-10-09T02:06:20.515Z,5.67
2022-10-09T02:08:53.037Z,5.67
2022-10-09T02:11:21.877Z,5.65
2022-10-09T02:13:52.914Z,5.63
2022-10-09T02:16:39.137Z,5.62
2022-10-09T02:19:32.346Z,5.58
2022-10-09T02:22:05.412Z,5.54
2022-10-09T02:24:33.341Z,5.53
2022-10-09T02:27:02.626Z,5.51
2022-10-09T02:29:29.990Z,5.49
2022-10-09T02:31:57.317Z,5.47
2022-10-09T02:34:25.184Z,5.45
2022-10-09T02:36:52.638Z,5.44
2022-10-09T02:39:22.549Z,5.43
2022-10-09T02:41:49.889Z,5.41
2022-10-09T02:44:17.408Z,5.39
2022-10-09T02:46:44.820Z,5.36
2022-10-09T02:49:12.281Z,5.33
2022-10-09T02:51:39.700Z,5.32
2022-10-09T02:54:07.391Z,5.32
2022-10-09T02:56:38.739Z,5.32
2022-10-09T02:59:07.521Z,5.31
2022-10-09T03:01:35.461Z,5.31
2022-10-09T03:04:02.972Z,5.29
2022-10-09T03:06:30.704Z,5.29
2022-10-09T03:08:58.280Z,5.28
2022-10-09T03:11:26.818Z,5.26
2022-10-09T03:13:54.884Z,5.23
2022-10-09T03:16:25.754Z,5.22
2022-10-09T03:18:54.640Z,5.19
2022-10-09T03:21:27.892Z,5.16
2022-10-09T03:23:56.307Z,5.13
2022-10-09T03:26:26.984Z,5.12
2022-10-09T03:28:55.925Z,5.09
2022-10-09T03:34:13.877Z,5.05
2022-10-09T03:36:42.201Z,5.05
2022-10-09T03:39:09.954Z,5.05
2022-10-09T03:41:37.325Z,5.06
2022-10-09T03:44:04.820Z,5.06
2022-10-09T03:46:32.265Z,5.07
2022-10-09T03:48:59.628Z,5.05
2022-10-09T03:51:27.399Z,5.04
2022-10-09T03:53:54.745Z,5.03
2022-10-09T03:56:22.160Z,5.02
2022-10-09T03:58:49.491Z,5.01
2022-10-09T04:01:16.892Z,5.01
2022-10-09T04:03:44.362Z,5.02
2022-10-09T04:06:12.188Z,5.02
2022-10-09T04:08:39.550Z,5.00
2022-10-09T04:11:06.925Z,5.00
2022-10-09T04:13:34.265Z,4.98
2022-10-09T04:16:01.655Z,4.95
2022-10-09T04:18:29.016Z,4.93
2022-10-09T04:20:57.344Z,4.86
2022-10-09T04:23:27.030Z,4.81
2022-10-09T04:25:56.629Z,4.77
2022-10-09T04:28:24.844Z,4.75
2022-10-09T04:30:52.805Z,4.74
2022-10-09T04:33:20.693Z,4.73
2022-10-09T04:35:53.163Z,4.74
2022-10-09T04:38:21.082Z,4.70
2022-10-09T04:41:03.160Z,4.69
2022-10-09T04:43:31.503Z,4.65
2022-10-09T04:45:59.350Z,4.63
2022-10-09T04:48:27.734Z,4.60
2022-10-09T04:50:55.079Z,4.57
2022-10-09T04:53:22.448Z,4.55
2022-10-09T04:55:49.763Z,4.51
2022-10-09T04:58:17.230Z,4.49
2022-10-09T05:00:46.596Z,4.47
2022-10-09T05:03:14.334Z,4.43
2022-10-09T05:05:41.676Z,4.41
2022-10-09T05:08:09.039Z,4.39
2022-10-09T05:10:36.492Z,4.37
2022-10-09T05:13:04.191Z,4.37
2022-10-09T05:15:32.210Z,4.36
2022-10-09T05:17:59.547Z,4.34
2022-10-09T05:20:27.046Z,4.32
2022-10-09T05:22:54.379Z,4.30
2022-10-09T05:25:21.710Z,4.30
2022-10-09T05:27:49.086Z,4.28
2022-10-09T05:30:16.463Z,4.25
2022-10-09T05:32:43.801Z,4.24
2022-10-09T05:35:11.193Z,4.21
2022-10-09T05:37:38.675Z,4.19
2022-10-09T05:40:06.973Z,4.17
2022-10-09T05:42:34.600Z,4.13
2022-10-09T05:45:01.969Z,4.12
2022-10-09T05:47:32.252Z,4.12
2022-10-09T05:49:59.688Z,4.10
2022-10-09T05:52:27.016Z,4.11
2022-10-09T05:54:54.484Z,4.11
2022-10-09T05:57:21.849Z,4.11
2022-10-09T05:59:49.247Z,4.12
2022-10-09T06:02:16.631Z,4.15
2022-10-09T06:04:44.033Z,4.16
2022-10-09T06:07:11.421Z,4.17
2022-10-09T06:09:38.744Z,4.17
2022-10-09T06:12:06.376Z,4.17
2022-10-09T06:14:33.763Z,4.19
2022-10-09T06:17:01.596Z,4.21
2022-10-09T06:19:29.013Z,4.20
2022-10-09T06:21:56.347Z,4.23
2022-10-09T06:24:29.156Z,4.26
2022-10-09T06:26:57.819Z,4.29
2022-10-09T06:29:25.913Z,4.30
2022-10-09T06:31:53.597Z,4.34
2022-10-09T06:34:20.995Z,4.37
2022-10-09T06:36:48.838Z,4.43
2022-10-09T06:39:16.981Z,4.51
2022-10-09T06:41:44.324Z,4.60
2022-10-09T06:44:24.179Z,4.71
2022-10-09T06:46:51.593Z,4.80
2022-10-09T06:49:18.984Z,4.93
2022-10-09T06:51:46.340Z,5.05
2022-10-09T06:54:17.179Z,5.18
2022-10-09T06:56:44.791Z,5.31
2022-10-09T06:59:13.224Z,5.39
2022-10-09T07:01:40.882Z,5.50
2022-10-09T07:04:14.463Z,5.63
2022-10-09T07:06:46.679Z,5.76
2022-10-09T07:09:15.852Z,5.88
2022-10-09T07:11:49.185Z,5.97
2022-10-09T07:14:17.103Z,6.07
2022-10-09T07:16:48.277Z,6.13
2022-10-09T07:19:17.593Z,6.18
2022-10-09T07:21:48.564Z,6.25
2022-10-09T07:24:17.632Z,6.30
2022-10-09T07:26:46.992Z,6.34
2022-10-09T07:29:17.661Z,6.41
2022-10-09T07:31:45.473Z,6.48
2022-10-09T07:34:12.938Z,6.55
2022-10-09T07:36:40.279Z,6.63
2022-10-09T07:39:08.187Z,6.71
2022-10-09T07:41:35.691Z,6.78
2022-10-09T07:44:03.484Z,6.85
2022-10-09T07:46:33.692Z,6.93
2022-10-09T07:49:02.968Z,7.01
2022-10-09T07:51:31.963Z,7.11
2022-10-09T07:54:01.770Z,7.19
2022-10-09T07:56:36.105Z,7.30
2022-10-09T07:59:12.829Z,7.39
2022-10-09T08:01:41.199Z,7.47
2022-10-09T08:04:09.124Z,7.56
2022-10-09T08:06:36.910Z,7.65
2022-10-09T08:09:06.991Z,7.76
2022-10-09T08:11:35.234Z,7.86
2022-10-09T08:14:02.588Z,7.96
2022-10-09T08:16:32.211Z,8.07
2022-10-09T08:19:01.373Z,8.16
2022-10-09T08:21:29.238Z,8.27
2022-10-09T08:23:58.585Z,8.40
2022-10-09T08:26:29.821Z,8.52
2022-10-09T08:29:03.706Z,8.66
2022-10-09T08:31:32.555Z,8.80
2022-10-09T08:34:03.593Z,8.95
2022-10-09T08:36:32.311Z,9.10
2022-10-09T08:38:59.745Z,9.26
2022-10-09T08:41:33.147Z,9.43
2022-10-09T08:44:13.432Z,9.61
2022-10-09T08:46:56.107Z,9.75
2022-10-09T08:49:37.466Z,9.95
2022-10-09T08:52:55.522Z,10.18
2022-10-09T08:55:28.463Z,10.34
2022-10-09T08:58:04.254Z,10.52
2022-10-09T09:00:44.382Z,10.67
2022-10-09T09:03:43.594Z,10.84
2022-10-09T09:06:31.356Z,11.00
2022-10-09T09:09:13.738Z,11.15
2022-10-09T09:11:50.419Z,11.27
2022-10-09T09:14:36.303Z,11.43
2022-10-09T09:17:14.884Z,11.58
2022-10-09T09:20:04.211Z,11.75
2022-10-09T09:22:34.237Z,11.86
2022-10-09T09:25:19.773Z,11.99
2022-10-09T09:27:47.995Z,12.14
2022-10-09T09:30:27.127Z,12.27
2022-10-09T09:33:18.622Z,12.41
2022-10-09T09:36:11.980Z,12.56
2022-10-09T09:38:54.752Z,12.68
2022-10-09T09:41:29.044Z,12.82
2022-10-09T09:43:58.311Z,12.94
2022-10-09T09:46:30.598Z,13.04
2022-10-09T09:48:57.983Z,13.16
2022-10-09T09:51:30.315Z,13.28
2022-10-09T09:54:14.017Z,13.40
2022-10-09T09:59:43.827Z,13.64
2022-10-09T10:02:21.492Z,13.74
2022-10-09T10:05:06.039Z,13.86
2022-10-09T10:07:37.568Z,13.94
2022-10-09T10:10:19.787Z,14.00
2022-10-09T10:12:55.409Z,14.07
2022-10-09T10:15:30.438Z,14.17
2022-10-09T10:18:15.428Z,14.29
2022-10-09T10:20:56.523Z,14.39
2022-10-09T10:23:46.631Z,14.44
2022-10-09T10:26:24.708Z,14.49
2022-10-09T10:29:01.853Z,14.55
2022-10-09T10:32:13.945Z,14.63
2022-10-09T10:34:52.524Z,14.75
2022-10-09T10:37:50.454Z,14.84
2022-10-09T10:40:28.199Z,14.93
2022-10-09T10:43:13.250Z,15.02
2022-10-09T10:46:04.556Z,15.12
2022-10-09T10:48:41.633Z,15.16
2022-10-09T10:51:20.025Z,15.25
2022-10-09T10:54:21.438Z,15.34
2022-10-09T10:56:58.814Z,15.38
2022-10-09T10:59:39.409Z,15.45
2022-10-09T11:02:09.928Z,15.56
2022-10-09T11:05:26.959Z,15.67
2022-10-09T11:08:38.799Z,15.77
2022-10-09T11:11:33.769Z,15.82
2022-10-09T11:14:36.046Z,15.91
2022-10-09T11:17:41.624Z,15.99
2022-10-09T11:20:49.500Z,16.05
2022-10-09T11:23:36.821Z,16.13
2022-10-09T11:26:49.814Z,16.29
2022-10-09T11:29:30.066Z,16.34
2022-10-09T11:32:10.655Z,16.43
2022-10-09T11:34:46.789Z,16.49
2022-10-09T11:37:22.589Z,16.52
2022-10-09T11:39:49.912Z,16.55
2022-10-09T11:42:22.881Z,16.64
2022-10-09T11:45:09.169Z,16.77
2022-10-09T11:48:08.055Z,16.84
2022-10-09T11:50:45.326Z,16.88
2022-10-09T11:53:20.713Z,16.92
2022-10-09T11:55:48.221Z,17.00
2022-10-09T11:58:18.576Z,17.13
2022-10-09T12:00:50.516Z,17.18
2022-10-09T12:03:37.786Z,17.21
2022-10-09T12:06:09.406Z,17.24
2022-10-09T12:08:40.891Z,17.21
2022-10-09T12:11:15.214Z,17.25
2022-10-09T12:13:52.921Z,17.28
2022-10-09T12:16:42.121Z,17.38
2022-10-09T12:19:20.980Z,17.47
2022-10-09T12:22:20.370Z,17.55
2022-10-09T12:24:52.968Z,17.65
2022-10-09T12:27:37.908Z,17.68
2022-10-09T12:30:22.550Z,17.75
2022-10-09T12:32:58.630Z,17.81
2022-10-09T12:35:38.819Z,17.86
2022-10-09T12:38:27.093Z,17.91
2022-10-09T12:41:00.281Z,17.90
2022-10-09T12:43:29.992Z,17.93
2022-10-09T12:45:57.907Z,17.96
2022-10-09T12:48:28.950Z,18.05
2022-10-09T12:50:56.522Z,18.05
2022-10-09T12:53:27.752Z,18.01
2022-10-09T12:56:00.546Z,18.01
2022-10-09T12:58:36.723Z,18.05
2022-10-09T13:01:11.848Z,18.08
2022-10-09T13:03:45.706Z,18.16
2022-10-09T13:06:24.564Z,18.21
2022-10-09T13:09:04.169Z,18.25
2022-10-09T13:11:38.007Z,18.27
2022-10-09T13:14:05.467Z,18.30
2022-10-09T13:16:43.481Z,18.35
2022-10-09T13:19:32.582Z,18.36
2022-10-09T13:22:01.096Z,18.37
2022-10-09T13:24:29.527Z,18.37
2022-10-09T13:26:56.881Z,18.38
2022-10-09T13:29:24.605Z,18.41
2022-10-09T13:31:52.038Z,18.45
2022-10-09T13:34:19.433Z,18.47
2022-10-09T13:36:46.810Z,18.50
2022-10-09T13:39:15.729Z,18.53
2022-10-09T13:41:45.156Z,18.52
2022-10-09T13:44:12.526Z,18.48
2022-10-09T13:46:39.969Z,18.42
2022-10-09T13:49:07.350Z,18.39
2022-10-09T13:51:36.064Z,18.42
2022-10-09T13:54:03.569Z,18.42
2022-10-09T13:56:30.898Z,18.41
2022-10-09T13:58:58.388Z,18.45
2022-10-09T14:01:25.853Z,18.48
2022-10-09T14:03:53.247Z,18.52
2022-10-09T14:06:22.344Z,18.53
2022-10-09T14:08:50.132Z,18.52
2022-10-09T14:11:17.589Z,18.53
2022-10-09T14:13:45.210Z,18.52
2022-10-09T14:16:12.689Z,18.47
2022-10-09T14:18:40.025Z,18.49
2022-10-09T14:21:15.883Z,18.52
2022-10-09T14:23:43.721Z,18.50
2022-10-09T14:26:11.137Z,18.52
2022-10-09T14:28:38.814Z,18.54
2022-10-09T14:31:07.793Z,18.59
2022-10-09T14:33:35.327Z,18.59
2022-10-09T14:36:09.076Z,18.62
2022-10-09T14:38:38.777Z,18.58
2022-10-09T14:41:07.298Z,18.50
2022-10-09T14:43:35.780Z,18.46
2022-10-09T14:46:12.061Z,18.42
2022-10-09T14:48:40.106Z,18.35
2022-10-09T14:51:18.109Z,18.35
2022-10-09T14:53:46.116Z,18.31
2022-10-09T14:56:20.031Z,18.30
2022-10-09T14:58:48.263Z,18.28
2022-10-09T15:01:19.592Z,18.27
2022-10-09T15:03:48.218Z,18.25
2022-10-09T15:06:18.279Z,18.29
2022-10-09T15:08:45.735Z,18.40
2022-10-09T15:11:13.331Z,18.45
2022-10-09T15:13:40.762Z,18.42
2022-10-09T15:16:14.611Z,18.38
2022-10-09T15:18:43.847Z,18.37
2022-10-09T15:21:30.081Z,18.36
2022-10-09T15:23:59.650Z,18.37
2022-10-09T15:26:29.969Z,18.38
2022-10-09T15:28:57.737Z,18.37
2022-10-09T15:31:38.326Z,18.34
2022-10-09T15:34:07.740Z,18.27
2022-10-09T15:36:39.569Z,18.21
2022-10-09T15:39:08.813Z,18.13
2022-10-09T15:41:39.478Z,18.03
2022-10-09T15:44:19.021Z,17.94
2022-10-09T15:46:48.614Z,17.88
2022-10-09T15:49:16.294Z,17.81
2022-10-09T15:51:43.853Z,17.76
2022-10-09T15:54:12.845Z,17.67
2022-10-09T15:56:41.398Z,17.57
2022-10-09T15:59:16.909Z,17.43
2022-10-09T16:01:44.610Z,17.31
2022-10-09T16:04:12.200Z,17.21
2022-10-09T16:06:39.668Z,17.13
2022-10-09T16:09:07.721Z,17.04
2022-10-09T16:11:35.118Z,16.97
2022-10-09T16:14:02.502Z,16.88
2022-10-09T16:16:30.066Z,16.81
2022-10-09T16:18:57.543Z,16.74
2022-10-09T16:21:28.422Z,16.66
2022-10-09T16:23:59.088Z,16.57
2022-10-09T16:26:29.909Z,16.50
2022-10-09T16:29:00.111Z,16.44
2022-10-09T16:31:34.602Z,16.37
2022-10-09T16:34:05.135Z,16.30
2022-10-09T16:36:32.832Z,16.22
2022-10-09T16:39:00.268Z,16.13
2022-10-09T16:41:27.858Z,16.05
2022-10-09T16:43:57.358Z,15.96
2022-10-09T16:49:14.757Z,15.81
2022-10-09T16:51:42.823Z,15.73
2022-10-09T16:54:10.671Z,15.64
2022-10-09T16:56:40.065Z,15.56
2022-10-09T16:59:12.568Z,15.45
2022-10-09T17:01:44.988Z,15.36
2022-10-09T17:04:14.459Z,15.28
2022-10-09T17:06:43.945Z,15.21
2022-10-09T17:09:13.986Z,15.12
2022-10-09T17:11:42.348Z,15.02
2022-10-09T17:14:10.018Z,14.94
2022-10-09T17:16:42.038Z,14.86
2022-10-09T17:19:09.518Z,14.76
2022-10-09T17:21:36.924Z,14.67
2022-10-09T17:24:06.304Z,14.59
2022-10-09T17:26:34.664Z,14.51
2022-10-09T17:29:03.445Z,14.43
2022-10-09T17:31:31.632Z,14.33
2022-10-09T17:34:03.086Z,14.25
2022-10-09T17:36:35.886Z,14.16
2022-10-09T17:39:06.894Z,14.05
2022-10-09T17:41:34.689Z,13.95
2022-10-09T17:44:02.268Z,13.86
2022-10-09T17:46:30.739Z,13.77
2022-10-09T17:49:00.115Z,13.69
2022-10-09T17:51:31.073Z,13.60
2022-10-09T17:54:02.754Z,13.51
2022-10-09T17:56:32.527Z,13.45
2022-10-09T17:59:01.531Z,13.37
2022-10-09T18:01:29.696Z,13.29
2022-10-09T18:03:58.189Z,13.23
2022-10-09T18:06:26.113Z,13.15
2022-10-09T18:08:55.718Z,13.08
2022-10-09T18:11:26.596Z,13.00
2022-10-09T18:13:54.679Z,12.92
2022-10-09T18:16:35.365Z,12.84
2022-10-09T18:19:12.189Z,12.75
2022-10-09T18:21:43.754Z,12.67
2022-10-09T18:24:12.807Z,12.60
2022-10-09T18:26:42.221Z,12.54
2022-10-09T18:29:09.750Z,12.45
2022-10-09T18:31:38.441Z,12.38
2022-10-09T18:34:06.115Z,12.33
2022-10-09T18:36:34.800Z,12.27
2022-10-09T18:39:09.690Z,12.21
2022-10-09T18:41:38.029Z,12.16
2022-10-09T18:44:08.798Z,12.10
2022-10-09T18:46:42.523Z,12.05
2022-10-09T18:49:15.689Z,11.99
2022-10-09T18:51:45.198Z,11.93
2022-10-09T18:54:18.170Z,11.88
2022-10-09T18:56:46.824Z,11.84
2022-10-09T18:59:19.430Z,11.80
2022-10-09T19:01:46.812Z,11.77
2022-10-09T19:04:14.328Z,11.75
2022-10-09T19:06:41.708Z,11.73
2022-10-09T19:09:09.170Z,11.74
2022-10-09T19:11:36.620Z,11.72
2022-10-09T19:14:04.499Z,11.71
2022-10-09T19:16:34.534Z,11.72
2022-10-09T19:19:02.332Z,11.72
2022-10-09T19:21:29.837Z,11.73
2022-10-09T19:24:03.272Z,11.74
2022-10-09T19:26:32.664Z,11.74
2022-10-09T19:29:00.280Z,11.73
2022-10-09T19:31:27.759Z,11.71
2022-10-09T19:33:55.138Z,11.70
2022-10-09T19:36:22.632Z,11.69
2022-10-09T19:38:50.529Z,11.67
2022-10-09T19:41:17.891Z,11.64
2022-10-09T19:43:45.342Z,11.61
2022-10-09T19:46:18.396Z,11.60
2022-10-09T19:48:46.946Z,11.56
2022-10-09T19:51:21.208Z,11.55
2022-10-09T19:53:52.028Z,11.51
2022-10-09T19:56:24.897Z,11.48
2022-10-09T19:58:54.343Z,11.47
2022-10-09T20:01:26.814Z,11.45
2022-10-09T20:04:10.975Z,11.42
2022-10-09T20:06:41.811Z,11.39
2022-10-09T20:09:11.752Z,11.37
2022-10-09T20:11:39.316Z,11.33
2022-10-09T20:14:07.782Z,11.31
2022-10-09T20:16:36.584Z,11.28
2022-10-09T20:19:04.714Z,11.27
2022-10-09T20:21:33.201Z,11.26
2022-10-09T20:24:01.443Z,11.24
2022-10-09T20:26:31.383Z,11.23
2022-10-09T20:28:59.371Z,11.21
2022-10-09T20:31:28.217Z,11.18
2022-10-09T20:33:56.180Z,11.14
2022-10-09T20:36:35.930Z,11.10
2022-10-09T20:39:12.312Z,11.05
2022-10-09T20:41:41.590Z,11.01
2022-10-09T20:44:10.843Z,10.96
2022-10-09T20:46:40.196Z,10.93
2022-10-09T20:49:12.776Z,10.90
2022-10-09T20:51:40.849Z,10.84
2022-10-09T20:54:16.442Z,10.82
2022-10-09T20:56:45.009Z,10.78
2022-10-09T20:59:14.988Z,10.75
2022-10-09T21:01:42.891Z,10.73
2022-10-09T21:04:11.139Z,10.70
2022-10-09T21:06:39.307Z,10.66
2022-10-09T21:09:07.300Z,10.64
2022-10-09T21:11:35.792Z,10.62
2022-10-09T21:14:03.582Z,10.58
2022-10-09T21:16:31.029Z,10.53
2022-10-09T21:19:02.421Z,10.51
2022-10-09T21:21:31.506Z,10.46
2022-10-09T21:24:00.543Z,10.43
2022-10-09T21:26:30.959Z,10.39
2022-10-09T21:28:59.990Z,10.36
2022-10-09T21:31:31.128Z,10.33
2022-10-09T21:34:00.875Z,10.31
2022-10-09T21:37:02.301Z,10.28
2022-10-09T21:39:32.071Z,10.23
2022-10-09T21:41:59.610Z,10.20
2022-10-09T21:44:27.605Z,10.17
2022-10-09T21:46:55.031Z,10.14
2022-10-09T21:49:27.206Z,10.12
2022-10-09T21:51:55.503Z,10.07
2022-10-09T21:54:23.253Z,10.05
2022-10-09T21:56:50.850Z,10.01
2022-10-09T21:59:18.221Z,9.99
2022-10-09T22:01:45.612Z,9.96
2022-10-09T22:04:19.016Z,9.93
2022-10-09T22:06:46.501Z,9.92
2022-10-09T22:09:13.968Z,9.89
2022-10-09T22:11:41.472Z,9.88
2022-10-09T22:14:08.808Z,9.87
2022-10-09T22:16:36.354Z,9.86
2022-10-09T22:19:03.946Z,9.85
2022-10-09T22:21:31.363Z,9.82
2022-10-09T22:24:00.899Z,9.80
2022-10-09T22:26:28.370Z,9.76
2022-10-09T22:28:55.725Z,9.75
2022-10-09T22:31:26.905Z,9.73
2022-10-09T22:33:58.363Z,9.68
2022-10-09T22:36:32.198Z,9.65
2022-10-09T22:39:04.215Z,9.64
2022-10-09T22:41:32.944Z,9.61
2022-10-09T22:44:01.792Z,9.58
2022-10-09T22:46:37.243Z,9.56
2022-10-09T22:49:07.014Z,9.51
2022-10-09T22:51:34.892Z,9.46
2022-10-09T22:54:02.322Z,9.42
2022-10-09T22:56:40.046Z,9.38
2022-10-09T22:59:09.919Z,9.31
2022-10-09T23:01:48.698Z,9.27
2022-10-09T23:04:18.069Z,9.21
2022-10-09T23:06:57.386Z,9.19
2022-10-09T23:09:31.878Z,9.14
2022-10-09T23:12:00.090Z,9.08
2022-10-09T23:14:28.062Z,9.03
2022-10-09T23:16:55.540Z,9.00
2022-10-09T23:19:23.029Z,8.97
2022-10-09T23:21:50.399Z,8.93
2022-10-09T23:24:18.021Z,8.90
2022-10-09T23:26:49.914Z,8.83
2022-10-09T23:29:19.206Z,8.80
2022-10-09T23:31:46.954Z,8.76
2022-10-09T23:34:14.516Z,8.72
2022-10-09T23:36:41.898Z,8.69
2022-10-09T23:39:09.857Z,8.64
2022-10-09T23:41:37.933Z,8.60
2022-10-09T23:44:05.339Z,8.55
2022-10-09T23:46:33.797Z,8.50
2022-10-09T23:49:04.634Z,8.45
2022-10-09T23:51:33.864Z,8.41
2022-10-09T23:54:01.518Z,8.37
2022-10-09T23:56:37.265Z,8.35
2022-10-09T23:59:06.611Z,8.33
